FQMA/MPM METAR and TAF weather

Enter ICAO airport designator
Station Type Date Time Source
FQMA METAR 2018/07/20 13:00 UTC NOAA

FQMA 201300Z 11004KT 9999 BKN020 23/13 Q1027 NOSIG


Station Type Date Time Source
FQMA Decoded METAR 2018/07/20 13:00 UTC NOAA

Maputo / Mavalane, Mozambique (FQMA) 25-55S 032-34E 44M
Jul 20, 2018 - 09:00 AM EDT / 2018.07.20 1300 UTC
Wind: from the ESE (110 degrees) at 5 MPH (4 KT):0
Visibility: greater than 7 mile(s):0
Sky conditions: mostly cloudy
Temperature: 73 F (23 C)
Dew Point: 55 F (13 C)
Relative Humidity: 53%
Pressure (altimeter): 30.33 in. Hg (1027 hPa)
ob: FQMA 201300Z 11004KT 9999 BKN020 23/13 Q1027 NOSIG
cycle: 13

Station Type Date Time Source
FQMA TAF 2018/07/20 12:21 UTC NOAA

TAF FQMA 201000Z 2012/2118 15012KT 9999 BKN020
BECMG 2018/2020 VRB03KT SCT025
BECMG 2100/2102 22007KT
BECMG 2106/2108 15008KT TX24/2013Z TN13/2103Z


Example: see airport list